Time;durP1;ratioP1;P1;durP2;ratioP2;P2;SDS_P1;SDS_P2;PMS_P1;PMS_P2;Temp;Humidity;BMP_temperature;BMP_pressure;BME280_temperature;BME280_humidity;BME280_pressure;Samples;Min_cycle;Max_cycle;Signal;HPM_P1;HPM_P2
2021/06/09 00:59:32;;;;;;;13.40;10.13;;;;;;;;;;6264142;22;20440;-96
2021/06/09 01:04:41;;;;;;;13.63;10.63;;;;;;;;;;6270759;23;20429;-96
2021/06/09 01:07:09;;;;;;;13.03;11.10;;;;;;;;;;6254783;22;20457;-96
2021/06/09 01:09:44;;;;;;;13.47;11.50;;;;;;;;;;6266645;23;20405;-96
2021/06/09 01:12:15;;;;;;;12.00;10.77;;;;;;;;;;6297606;22;20404;-96
2021/06/09 01:14:44;;;;;;;14.10;12.00;;;;;;;;;;6292216;22;20491;-96
2021/06/09 01:17:12;;;;;;;12.77;11.43;;;;;;;;;;6289667;22;20443;-96
2021/06/09 01:19:38;;;;;;;14.87;11.07;;;;;;;;;;6292636;22;20508;-96
2021/06/09 01:22:05;;;;;;;14.07;11.90;;;;;;;;;;6293406;22;20452;-96
2021/06/09 01:24:32;;;;;;;12.30;10.60;;;;;;;;;;6293152;22;20405;-96
2021/06/09 01:26:58;;;;;;;13.10;9.80;;;;;;;;;;6294914;22;20480;-95
2021/06/09 01:29:26;;;;;;;11.77;10.57;;;;;;;;;;6297742;22;20405;-96
2021/06/09 01:32:11;;;;;;;10.30;9.20;;;;;;;;;;6298086;22;20393;-96
2021/06/09 01:38:03;;;;;;;9.90;8.80;;;;;;;;;;6302828;22;20523;-96
2021/06/09 01:40:30;;;;;;;11.33;10.20;;;;;;;;;;6268962;22;20405;-96
2021/06/09 01:42:57;;;;;;;15.80;11.30;;;;;;;;;;6289442;22;20448;-96
2021/06/09 01:45:25;;;;;;;12.23;10.90;;;;;;;;;;6290960;22;20397;-96
2021/06/09 01:53:44;;;;;;;13.67;9.70;;;;;;;;;;6295935;22;20400;-96
2021/06/09 01:56:15;;;;;;;16.93;10.10;;;;;;;;;;6295390;22;20413;-96
2021/06/09 01:58:44;;;;;;;15.60;10.83;;;;;;;;;;6294296;22;20416;-96
2021/06/09 02:01:14;;;;;;;11.40;9.77;;;;;;;;;;6297738;22;20456;-96
2021/06/09 02:16:01;;;;;;;11.27;10.07;;;;;;;;;;6287809;22;20458;-96
2021/06/09 02:18:30;;;;;;;10.67;9.13;;;;;;;;;;6299782;22;20412;-96
2021/06/09 02:21:15;;;;;;;15.20;12.20;;;;;;;;;;6302884;22;20401;-96
2021/06/09 04:12:11;;;;;;;18.80;14.60;;;;;;;;;;6215427;23;20394;-96
2021/06/09 04:20:09;;;;;;;17.47;14.83;;;;;;;;;;6258573;22;20564;-96
2021/06/09 04:22:36;;;;;;;18.10;14.90;;;;;;;;;;6269618;22;20446;-96
2021/06/09 04:25:03;;;;;;;18.67;14.10;;;;;;;;;;6262119;23;20473;-95
2021/06/09 04:27:32;;;;;;;19.90;15.87;;;;;;;;;;6256838;23;20409;-95
2021/06/09 04:29:58;;;;;;;19.13;16.23;;;;;;;;;;6256462;23;20403;-95
2021/06/09 04:32:25;;;;;;;21.90;15.40;;;;;;;;;;6260160;23;20757;-96
2021/06/09 04:34:51;;;;;;;18.93;15.23;;;;;;;;;;6258144;23;20918;-95
2021/06/09 04:37:19;;;;;;;16.27;13.77;;;;;;;;;;6259233;23;20412;-95
2021/06/09 04:39:46;;;;;;;16.07;14.40;;;;;;;;;;6258114;23;20413;-96
2021/06/09 04:42:12;;;;;;;18.87;14.10;;;;;;;;;;6260028;23;20441;-95
2021/06/09 04:44:40;;;;;;;18.00;13.60;;;;;;;;;;6259378;23;20414;-96
2021/06/09 04:47:07;;;;;;;14.93;12.80;;;;;;;;;;6262282;23;20402;-94
2021/06/09 04:49:34;;;;;;;14.43;13.00;;;;;;;;;;6259631;23;20993;-94
2021/06/09 04:52:12;;;;;;;17.03;13.53;;;;;;;;;;6263020;23;20406;-96
2021/06/09 04:57:22;;;;;;;17.47;13.67;;;;;;;;;;6263890;22;20971;-96
2021/06/09 05:08:23;;;;;;;16.93;15.10;;;;;;;;;;6302238;22;20472;-96
2021/06/09 05:10:51;;;;;;;17.03;13.70;;;;;;;;;;6274527;22;20480;-95
2021/06/09 18:32:53;;;;;;;6.40;5.80;;;;;;;;;;5136599;27;21128;-95
2021/06/09 18:35:20;;;;;;;8.17;7.37;;;;;;;;;;5098310;28;20436;-92
2021/06/09 18:40:36;;;;;;;7.60;6.90;;;;;;;;;;6052639;23;20442;-96
2021/06/09 19:37:37;;;;;;;6.00;5.07;;;;;;;;;;6060014;22;21142;-96
2021/06/09 19:40:10;;;;;;;6.10;5.30;;;;;;;;;;5115292;28;20450;-96
2021/06/09 19:42:40;;;;;;;7.63;4.97;;;;;;;;;;5092596;28;20458;-96
2021/06/09 20:09:21;;;;;;;5.97;5.47;;;;;;;;;;5949289;22;20489;-96
2021/06/09 20:11:54;;;;;;;5.80;5.30;;;;;;;;;;4987057;28;20431;-96
2021/06/09 20:14:35;;;;;;;6.00;5.40;;;;;;;;;;5020335;28;20429;-96
2021/06/09 20:17:02;;;;;;;6.13;5.53;;;;;;;;;;5225864;23;20557;-96
2021/06/09 20:19:28;;;;;;;8.50;5.90;;;;;;;;;;5086370;28;20463;-96
2021/06/09 20:21:54;;;;;;;9.27;6.13;;;;;;;;;;5101052;28;20484;-96
2021/06/09 20:24:22;;;;;;;13.40;6.10;;;;;;;;;;5098211;28;20442;-96
2021/06/09 20:29:34;;;;;;;6.20;5.70;;;;;;;;;;5102719;28;20469;-96
2021/06/09 20:32:01;;;;;;;6.90;5.87;;;;;;;;;;5085259;28;20481;-96
2021/06/09 20:34:28;;;;;;;5.57;5.10;;;;;;;;;;5095084;28;20429;-96
2021/06/09 20:36:54;;;;;;;5.40;5.00;;;;;;;;;;5094322;28;20525;-96
2021/06/09 20:39:20;;;;;;;6.20;5.20;;;;;;;;;;5103018;28;20434;-96
2021/06/09 20:41:46;;;;;;;5.30;4.90;;;;;;;;;;5105799;28;20476;-96
2021/06/09 20:44:14;;;;;;;5.87;5.10;;;;;;;;;;5105786;28;20468;-96
2021/06/09 20:46:41;;;;;;;5.87;4.80;;;;;;;;;;5082759;28;20471;-96
2021/06/09 20:49:07;;;;;;;5.47;4.97;;;;;;;;;;5090467;28;20446;-96
2021/06/09 20:51:33;;;;;;;5.63;5.13;;;;;;;;;;5087775;28;20536;-96
2021/06/09 20:53:59;;;;;;;6.50;5.53;;;;;;;;;;5100952;28;20455;-96
2021/06/09 20:56:25;;;;;;;5.73;5.23;;;;;;;;;;5091110;28;20961;-96
2021/06/09 20:58:52;;;;;;;6.50;6.00;;;;;;;;;;5096978;28;20425;-96
2021/06/09 21:01:20;;;;;;;6.30;5.70;;;;;;;;;;5093673;28;20866;-96
2021/06/09 21:03:46;;;;;;;6.40;5.90;;;;;;;;;;5095555;28;20453;-96
2021/06/09 21:06:14;;;;;;;6.80;6.20;;;;;;;;;;5094598;28;20456;-96
2021/06/09 21:08:40;;;;;;;6.37;5.77;;;;;;;;;;5091025;28;20528;-96
2021/06/09 21:11:06;;;;;;;9.47;6.57;;;;;;;;;;5093379;28;20459;-96
2021/06/09 21:13:32;;;;;;;6.60;5.90;;;;;;;;;;5097313;28;20448;-96
2021/06/09 21:16:02;;;;;;;6.67;5.93;;;;;;;;;;5100263;28;20467;-96
2021/06/09 21:18:32;;;;;;;5.20;4.80;;;;;;;;;;5086118;28;20506;-96
2021/06/09 21:20:59;;;;;;;6.20;5.43;;;;;;;;;;5104916;28;20578;-96
2021/06/09 21:23:33;;;;;;;5.87;5.37;;;;;;;;;;5086468;28;20456;-96
2021/06/09 21:26:15;;;;;;;5.90;5.40;;;;;;;;;;5105040;28;20525;-96
2021/06/09 21:28:44;;;;;;;6.50;5.80;;;;;;;;;;5104650;28;20512;-96
2021/06/09 21:31:10;;;;;;;6.40;5.80;;;;;;;;;;5113379;28;20942;-96
2021/06/09 21:33:39;;;;;;;5.80;5.30;;;;;;;;;;5094062;28;20460;-96
2021/06/09 21:36:19;;;;;;;5.67;5.20;;;;;;;;;;5110231;28;20508;-97
2021/06/09 21:41:26;;;;;;;6.13;5.53;;;;;;;;;;5961682;22;21157;-96
2021/06/09 21:43:57;;;;;;;6.33;5.80;;;;;;;;;;5062289;28;20509;-96
2021/06/09 21:49:11;;;;;;;5.30;4.90;;;;;;;;;;5323365;22;20502;-96
2021/06/09 21:51:48;;;;;;;5.50;5.00;;;;;;;;;;5071845;28;20493;-96
2021/06/09 22:02:21;;;;;;;6.80;5.90;;;;;;;;;;5260090;22;20556;-96
2021/06/09 22:04:49;;;;;;;7.03;6.17;;;;;;;;;;5067196;28;20450;-96
2021/06/09 22:07:16;;;;;;;9.00;8.20;;;;;;;;;;5066611;28;20454;-96
2021/06/09 22:09:42;;;;;;;7.77;7.07;;;;;;;;;;5069727;28;20467;-96
2021/06/09 22:12:08;;;;;;;8.20;6.30;;;;;;;;;;5067300;28;20469;-96
2021/06/09 22:14:35;;;;;;;6.67;6.00;;;;;;;;;;5068638;28;20453;-96
2021/06/09 22:17:01;;;;;;;8.50;6.63;;;;;;;;;;5065078;28;20450;-96
2021/06/09 22:19:29;;;;;;;7.73;6.67;;;;;;;;;;5070999;28;20458;-96
2021/06/09 22:21:56;;;;;;;8.10;7.40;;;;;;;;;;5071103;28;21433;-96
2021/06/09 22:32:44;;;;;;;11.17;6.97;;;;;;;;;;5256889;22;20572;-96
2021/06/09 22:35:11;;;;;;;10.40;6.20;;;;;;;;;;5058677;28;20437;-96
2021/06/09 22:41:19;;;;;;;5.13;4.73;;;;;;;;;;5312792;22;20488;-96
2021/06/09 22:43:55;;;;;;;6.43;5.90;;;;;;;;;;5051739;28;20453;-96
2021/06/09 22:46:27;;;;;;;5.47;4.97;;;;;;;;;;5073798;28;20441;-96
2021/06/09 22:48:54;;;;;;;6.00;5.30;;;;;;;;;;5082971;23;20511;-96
2021/06/09 22:54:39;;;;;;;7.03;6.27;;;;;;;;;;5054620;28;20453;-96
2021/06/09 23:04:54;;;;;;;6.50;5.90;;;;;;;;;;5072780;28;20549;-96
2021/06/09 23:07:22;;;;;;;7.03;6.43;;;;;;;;;;5068655;28;20445;-96
2021/06/09 23:09:49;;;;;;;7.03;6.43;;;;;;;;;;5077130;28;20510;-96
2021/06/09 23:12:19;;;;;;;6.83;6.30;;;;;;;;;;5075569;28;20476;-96
2021/06/09 23:14:47;;;;;;;6.00;5.50;;;;;;;;;;5070112;28;20485;-96
2021/06/09 23:17:15;;;;;;;6.80;5.93;;;;;;;;;;5072067;28;20481;-96
2021/06/09 23:19:43;;;;;;;6.77;6.10;;;;;;;;;;5082114;28;20476;-96
2021/06/09 23:24:49;;;;;;;7.57;6.77;;;;;;;;;;5231552;22;20493;-96
2021/06/09 23:27:17;;;;;;;7.47;6.67;;;;;;;;;;5074853;28;20474;-96
2021/06/09 23:32:25;;;;;;;7.87;7.13;;;;;;;;;;5070360;28;20488;-96
2021/06/09 23:34:52;;;;;;;8.20;7.50;;;;;;;;;;5069862;28;20469;-96
